Dong Fang Chun — BRZL — position and weather

sailwx.info

Track history (hours):
 
Tides and Currents Weather Stations Pressure Air Temp Water Temp Dewpoint Dewpoint Depression Visibility Wind Speed Wind Dir Waves Ship Positions

Dong Fang Chun

Last reported at 2015-Jan-28 13:33 UTC. Time now 2015-Jan-28 14:14 UTC.
Position N 22°29' E 113°55'.

Length 23 m; draft 1.4 m.

Type: High speed craft. MMSI: 412461320.

Date/timePositionNaut miles runAvg speedWind from/ knotsBaromVisibWave heightAir tempDewpointWater temp
2015-Jan-28 13:33N 22°29' E 113°55'0 0.0
2015-Jan-28 12:34N 22°29' E 113°55'1 0.5
2015-Jan-28 10:33N 22°28' E 113°55'1 0.5
2015-Jan-28 08:34N 22°29' E 113°55'0 0.0
2015-Jan-28 06:33N 22°29' E 113°55'1313.3
2015-Jan-28 05:33N 22°19' E 113°44'8 7.4
2015-Jan-28 04:31N 22°16' E 113°37'2121.6
2015-Jan-28 03:34N 22°28' E 113°55'1513.9
2015-Jan-28 02:30N 22°19' E 113°43'7 7.3
2015-Jan-28 01:33N 22°15' E 113°37'2221.6
2015-Jan-28 00:33N 22°29' E 113°55'0 0.1
2015-Jan-27 23:33N 22°29' E 113°55'0 0.0
2015-Jan-27 22:33N 22°29' E 113°55'0 0.0
2015-Jan-27 21:32N 22°29' E 113°55'0 0.0
2015-Jan-27 20:33N 22°29' E 113°55'0 0.0
2015-Jan-27 19:34N 22°29' E 113°55'0 0.0
2015-Jan-27 18:32N 22°29' E 113°55'0 0.0
2015-Jan-27 17:33N 22°29' E 113°55'0 0.0
2015-Jan-27 16:33N 22°29' E 113°55'0 0.0
2015-Jan-27 15:33N 22°29' E 113°55'0 0.0
2015-Jan-27 14:33N 22°29' E 113°55'4 1.9
2015-Jan-27 12:33N 22°25' E 113°54'1 1.1
2015-Jan-27 11:32N 22°26' E 113°53'2020.0
2015-Jan-27 10:32N 22°14' E 113°35'0 0.2
2015-Jan-27 09:32N 22°14' E 113°35'2121.3
2015-Jan-27 08:33N 22°26' E 113°53'1110.9
2015-Jan-27 07:33N 22°20' E 113°44'5 4.7
2015-Jan-27 06:33N 22°17' E 113°40'1817.7
2015-Jan-27 05:33N 22°29' E 113°55'2020.0
2015-Jan-27 04:34N 22°16' E 113°38'10 9.8
2015-Jan-27 03:32N 22°22' E 113°47'7 7.1
2015-Jan-27 02:33N 22°26' E 113°53'2020.0
2015-Jan-27 01:33N 22°14' E 113°35'1212.4
2015-Jan-27 00:33N 22°21' E 113°47'1110.7
2015-Jan-26 23:33N 22°29' E 113°55'0 0.0
2015-Jan-26 22:33N 22°29' E 113°55'0 0.0
2015-Jan-26 21:33N 22°29' E 113°55'0 0.0
2015-Jan-26 20:33N 22°29' E 113°55'0 0.0
2015-Jan-26 19:33N 22°29' E 113°55'0 0.0
2015-Jan-26 18:33N 22°29' E 113°55'0 0.0
2015-Jan-26 17:33N 22°29' E 113°55'0 0.0
2015-Jan-26 16:33N 22°29' E 113°55'0 0.0
2015-Jan-26 15:33N 22°29' E 113°55'0 0.0
2015-Jan-26 14:34N 22°29' E 113°55'0 0.0
2015-Jan-26 13:33N 22°29' E 113°55'0 0.0
2015-Jan-26 12:33N 22°29' E 113°55'0 0.2
2015-Jan-26 10:33N 22°28' E 113°55'0 0.2
2015-Jan-26 08:33N 22°29' E 113°55'1413.6
2015-Jan-26 07:32N 22°19' E 113°43'5 5.1
2015-Jan-26 06:33N 22°17' E 113°39'1919.1
2015-Jan-26 05:33N 22°29' E 113°55'2019.9
2015-Jan-26 04:33N 22°16' E 113°38'10 9.6
2015-Jan-26 03:33N 22°21' E 113°47'7 7.5
2015-Jan-26 02:34N 22°26' E 113°53'2019.0
2015-Jan-26 01:30N 22°14' E 113°35'1313.6
2015-Jan-26 00:33N 22°21' E 113°47'1010.3
2015-Jan-25 23:33N 22°29' E 113°55'0 0.0
2015-Jan-25 22:33N 22°29' E 113°55'0 0.0
2015-Jan-25 21:33N 22°29' E 113°55'0 0.0
2015-Jan-25 20:33N 22°29' E 113°55'0 0.0
2015-Jan-25 19:33N 22°29' E 113°55'0 0.0
2015-Jan-25 18:33N 22°29' E 113°55'0 0.0
2015-Jan-25 17:33N 22°29' E 113°55'0 0.0
2015-Jan-25 16:33N 22°29' E 113°55'0 0.0
2015-Jan-25 15:32N 22°29' E 113°55'0 0.0
2015-Jan-25 14:33N 22°29' E 113°55'0 0.0
2015-Jan-25 13:33N 22°29' E 113°55'0 0.0
2015-Jan-25 12:33N 22°29' E 113°55'4 3.2
2015-Jan-25 11:14N 22°25' E 113°54'0 0.1
2015-Jan-25 10:33N 22°25' E 113°54'4 2.1
2015-Jan-25 08:33N 22°29' E 113°55'0 0.0
2015-Jan-25 06:32N 22°29' E 113°55'1514.5
2015-Jan-25 05:30N 22°19' E 113°43'6 6.1
2015-Jan-25 04:33N 22°16' E 113°37'2120.8
2015-Jan-25 03:34N 22°29' E 113°55'1714.6
2015-Jan-25 02:25N 22°18' E 113°41'5 6.3
2015-Jan-25 01:33N 22°15' E 113°36'2222.0
2015-Jan-25 00:33N 22°29' E 113°55'0 0.1
2015-Jan-24 23:33N 22°29' E 113°55'0 0.0
2015-Jan-24 22:33N 22°29' E 113°55'0 0.0
2015-Jan-24 21:33N 22°29' E 113°55'0 0.0
2015-Jan-24 20:33N 22°29' E 113°55'0 0.0
2015-Jan-24 19:33N 22°29' E 113°55'0 0.0
2015-Jan-24 18:31N 22°29' E 113°55'0 0.0
2015-Jan-24 17:33N 22°29' E 113°55'0 0.0
2015-Jan-24 16:30N 22°29' E 113°55'0 0.0
2015-Jan-24 15:30N 22°29' E 113°55'0 0.0
2015-Jan-24 14:31N 22°29' E 113°55'5 4.8
2015-Jan-24 13:33N 22°24' E 113°54'0 0.4
2015-Jan-24 12:29N 22°24' E 113°54'5 2.6
2015-Jan-24 10:33N 22°29' E 113°55'1 0.6
2015-Jan-24 08:33N 22°28' E 113°55'1 1.1
2015-Jan-24 07:32N 22°29' E 113°55'3 3.4
2015-Jan-24 06:33N 22°26' E 113°53'2018.8
2015-Jan-24 05:29N 22°14' E 113°35'1313.7
2015-Jan-24 04:33N 22°21' E 113°47'8 7.5
2015-Jan-24 03:33N 22°26' E 113°53'2019.9
2015-Jan-24 02:32N 22°14' E 113°35'1313.7
2015-Jan-24 01:33N 22°22' E 113°47'10 9.4
2015-Jan-24 00:32N 22°29' E 113°55'0 0.0
2015-Jan-23 23:32N 22°29' E 113°55'0 0.0
2015-Jan-23 22:33N 22°29' E 113°55'0 0.0
2015-Jan-23 21:33N 22°29' E 113°55'0 0.0
2015-Jan-23 20:32N 22°29' E 113°55'0 0.0
2015-Jan-23 19:33N 22°29' E 113°55'0 0.0
2015-Jan-23 18:33N 22°29' E 113°55'0 0.0
2015-Jan-23 17:33N 22°29' E 113°55'0 0.0
2015-Jan-23 16:31N 22°29' E 113°55'0 0.0
2015-Jan-23 15:33N 22°29' E 113°55'0 0.0
2015-Jan-23 14:33N 22°29' E 113°55'5 5.2
2015-Jan-23 13:33N 22°24' E 113°54'1 0.8
2015-Jan-23 12:32N 22°24' E 113°54'4 2.3
2015-Jan-23 10:33N 22°29' E 113°55'0 0.2
2015-Jan-23 08:33N 22°28' E 113°55'0 0.3
2015-Jan-23 07:33N 22°29' E 113°55'4 3.9
2015-Jan-23 06:33N 22°25' E 113°53'1919.0
2015-Jan-23 05:33N 22°15' E 113°35'1313.6
2015-Jan-23 04:33N 22°22' E 113°47'7 7.3
2015-Jan-23 03:33N 22°26' E 113°54'2120.9
2015-Jan-23 02:33N 22°14' E 113°35'1313.2
2015-Jan-23 01:33N 22°22' E 113°47'10 9.8
2015-Jan-23 00:33N 22°29' E 113°55'0 0.1
2015-Jan-22 23:33N 22°29' E 113°55'0 0.0
2015-Jan-22 22:33N 22°29' E 113°55'0 0.0
2015-Jan-22 21:34N 22°29' E 113°55'0 0.0
2015-Jan-22 20:33N 22°29' E 113°55'0 0.0
2015-Jan-22 19:33N 22°29' E 113°55'0 0.0
2015-Jan-22 18:33N 22°29' E 113°55'0 0.0
2015-Jan-22 17:33N 22°29' E 113°55'0 0.0
2015-Jan-22 16:34N 22°29' E 113°55'0 0.0
2015-Jan-22 15:33N 22°29' E 113°55'0 0.1
2015-Jan-22 14:33N 22°29' E 113°55'0 0.1
2015-Jan-22 13:33N 22°29' E 113°55'1513.8
2015-Jan-22 12:29N 22°19' E 113°43'8 8.8
2015-Jan-22 11:33N 22°14' E 113°35'1918.4
2015-Jan-22 10:31N 22°25' E 113°52'1 0.6
2015-Jan-22 09:33N 22°26' E 113°53'2019.5
2015-Jan-22 08:33N 22°14' E 113°35'1313.3
2015-Jan-22 07:33N 22°21' E 113°47'7 7.2
2015-Jan-22 06:33N 22°26' E 113°53'2019.5
2015-Jan-22 05:31N 22°14' E 113°35'1313.7
2015-Jan-22 04:33N 22°21' E 113°47'7 7.4
2015-Jan-22 03:33N 22°26' E 113°54'2120.3
2015-Jan-22 02:33N 22°14' E 113°35'1313.3
2015-Jan-22 01:33N 22°21' E 113°47'10 9.9
2015-Jan-22 00:33N 22°29' E 113°55'0 0.0
2015-Jan-21 23:33N 22°29' E 113°55'0 0.0
2015-Jan-21 22:49N 22°29' E 113°55'0 0.0
2015-Jan-21 22:46N 22°29' E 113°55'0 0.0
2015-Jan-21 22:33N 22°29' E 113°55'0 0.0
2015-Jan-21 21:31N 22°29' E 113°55'0 0.0
2015-Jan-21 20:33N 22°29' E 113°55'0 0.0
2015-Jan-21 19:33N 22°29' E 113°55'0 0.0
2015-Jan-21 18:32N 22°29' E 113°55'0 0.0
2015-Jan-21 17:34N 22°29' E 113°55'0 0.0
2015-Jan-21 16:33N 22°29' E 113°55'0 0.0
2015-Jan-21 15:32N 22°29' E 113°55'0 0.0
2015-Jan-21 14:32N 22°29' E 113°55'0 0.0
2015-Jan-21 13:33N 22°29' E 113°55'0 0.0
2015-Jan-21 12:33N 22°29' E 113°55'0 0.2
2015-Jan-21 10:33N 22°28' E 113°55'0 0.2
2015-Jan-21 08:33N 22°29' E 113°55'1514.8
2015-Jan-21 07:33N 22°19' E 113°43'2 2.4
2015-Jan-21 06:33N 22°17' E 113°41'1717.2
2015-Jan-21 05:33N 22°29' E 113°55'2121.1
2015-Jan-21 04:33N 22°15' E 113°37'1211.6
2015-Jan-21 03:33N 22°22' E 113°47'7 7.2
2015-Jan-21 02:33N 22°26' E 113°54'2118.4
2015-Jan-21 01:26N 22°14' E 113°35'1314.9
2015-Jan-21 00:33N 22°22' E 113°47'10 9.8
2015-Jan-20 23:32N 22°29' E 113°55'0 0.0
2015-Jan-20 22:32N 22°29' E 113°55'0 0.0
2015-Jan-20 21:33N 22°29' E 113°55'0 0.0
2015-Jan-20 20:33N 22°29' E 113°55'0 0.0
2015-Jan-20 19:32N 22°29' E 113°55'0 0.0
2015-Jan-20 18:33N 22°29' E 113°55'0 0.0
2015-Jan-20 17:32N 22°29' E 113°55'0 0.0
2015-Jan-20 16:33N 22°29' E 113°55'0 0.0
2015-Jan-20 15:33N 22°29' E 113°55'0 0.0
2015-Jan-20 14:31N 22°29' E 113°55'4 2.2
2015-Jan-20 12:28N 22°24' E 113°54'2 2.5
2015-Jan-20 11:33N 22°27' E 113°54'2119.2
2015-Jan-20 10:27N 22°14' E 113°35'2 2.4
2015-Jan-20 09:31N 22°16' E 113°37'2121.4
2015-Jan-20 08:33N 22°29' E 113°55'6 5.8
2015-Jan-20 07:33N 22°24' E 113°51'1716.5
2015-Jan-20 06:30N 22°14' E 113°35'1313.3
2015-Jan-20 05:32N 22°21' E 113°47'9 8.9
2015-Jan-20 04:33N 22°27' E 113°54'2121.3
2015-Jan-20 03:33N 22°14' E 113°35'1413.4
2015-Jan-20 02:32N 22°22' E 113°48'7 7.5
2015-Jan-20 01:33N 22°27' E 113°54'2121.2
2015-Jan-20 00:33N 22°14' E 113°35'0 0.0
2015-Jan-19 23:33N 22°14' E 113°35'0 0.0
2015-Jan-19 22:29N 22°14' E 113°35'0 0.0
2015-Jan-19 21:33N 22°14' E 113°35'0 0.0
2015-Jan-19 20:32N 22°14' E 113°35'0 0.0
2015-Jan-19 19:33N 22°14' E 113°35'0 0.0
2015-Jan-19 18:30N 22°14' E 113°35'0 0.0
2015-Jan-19 17:32N 22°14' E 113°35'0 0.0
2015-Jan-19 16:33N 22°14' E 113°35'0 0.0
2015-Jan-19 15:33N 22°14' E 113°35'0 0.0
2015-Jan-19 14:33N 22°14' E 113°35'2 1.8
2015-Jan-19 13:33N 22°16' E 113°37'2120.9
2015-Jan-19 12:33N 22°29' E 113°55'0 0.0
2015-Jan-19 11:33N 22°29' E 113°55'1313.3
2015-Jan-19 10:32N 22°19' E 113°44'10 9.2
2015-Jan-19 09:30N 22°15' E 113°35'1313.6
2015-Jan-19 08:33N 22°21' E 113°47'1010.1
2015-Jan-19 07:33N 22°29' E 113°55'0 0.0
2015-Jan-19 06:33N 22°29' E 113°55'1 0.7
2015-Jan-19 04:33N 22°27' E 113°54'1 1.3
2015-Jan-19 03:33N 22°29' E 113°55'6 5.5
2015-Jan-19 02:25N 22°22' E 113°55'5 6.1
2015-Jan-19 01:33N 22°27' E 113°55'4 2.7
2015-Jan-19 00:07N 22°24' E 113°54'5 9.0
2015-Jan-18 23:33N 22°29' E 113°55'0 0.0
2015-Jan-18 22:31N 22°29' E 113°55'0 0.0
2015-Jan-18 21:32N 22°29' E 113°55'0 0.0
2015-Jan-18 20:33N 22°29' E 113°55'0 0.0
2015-Jan-18 19:32N 22°29' E 113°55'0 0.0
2015-Jan-18 18:32N 22°29' E 113°55'0 0.0
2015-Jan-18 17:30N 22°29' E 113°55'0 0.0
2015-Jan-18 16:33N 22°29' E 113°55'0 0.0
2015-Jan-18 15:32N 22°29' E 113°55'0 0.0
2015-Jan-18 14:33N 22°29' E 113°55'  
Track history (hours):
 
Tides and Currents Weather Stations Pressure Air Temp Water Temp Dewpoint Dewpoint Depression Visibility Wind Speed Wind Dir Waves Ship Positions

Dong Fang Chun

Last reported at 2015-Jan-28 13:33 UTC. Time now 2015-Jan-28 14:14 UTC.
Position N 22°29' E 113°55'.

Length 23 m; draft 1.4 m.

Type: High speed craft. MMSI: 412461320.

Date/timePositionNaut miles runAvg speedWind from/ knotsBaromVisibWave heightAir tempDewpointWater temp
2015-Jan-28 13:33N 22°29' E 113°55'0 0.0
2015-Jan-28 12:34N 22°29' E 113°55'1 0.5
2015-Jan-28 10:33N 22°28' E 113°55'1 0.5
2015-Jan-28 08:34N 22°29' E 113°55'0 0.0
2015-Jan-28 06:33N 22°29' E 113°55'1313.3
2015-Jan-28 05:33N 22°19' E 113°44'8 7.4
2015-Jan-28 04:31N 22°16' E 113°37'2121.6
2015-Jan-28 03:34N 22°28' E 113°55'1513.9
2015-Jan-28 02:30N 22°19' E 113°43'7 7.3
2015-Jan-28 01:33N 22°15' E 113°37'2221.6
2015-Jan-28 00:33N 22°29' E 113°55'0 0.1
2015-Jan-27 23:33N 22°29' E 113°55'0 0.0
2015-Jan-27 22:33N 22°29' E 113°55'0 0.0
2015-Jan-27 21:32N 22°29' E 113°55'0 0.0
2015-Jan-27 20:33N 22°29' E 113°55'0 0.0
2015-Jan-27 19:34N 22°29' E 113°55'0 0.0
2015-Jan-27 18:32N 22°29' E 113°55'0 0.0
2015-Jan-27 17:33N 22°29' E 113°55'0 0.0
2015-Jan-27 16:33N 22°29' E 113°55'0 0.0
2015-Jan-27 15:33N 22°29' E 113°55'0 0.0
2015-Jan-27 14:33N 22°29' E 113°55'4 1.9
2015-Jan-27 12:33N 22°25' E 113°54'1 1.1
2015-Jan-27 11:32N 22°26' E 113°53'2020.0
2015-Jan-27 10:32N 22°14' E 113°35'0 0.2
2015-Jan-27 09:32N 22°14' E 113°35'2121.3
2015-Jan-27 08:33N 22°26' E 113°53'1110.9
2015-Jan-27 07:33N 22°20' E 113°44'5 4.7
2015-Jan-27 06:33N 22°17' E 113°40'1817.7
2015-Jan-27 05:33N 22°29' E 113°55'2020.0
2015-Jan-27 04:34N 22°16' E 113°38'10 9.8
2015-Jan-27 03:32N 22°22' E 113°47'7 7.1
2015-Jan-27 02:33N 22°26' E 113°53'2020.0
2015-Jan-27 01:33N 22°14' E 113°35'1212.4
2015-Jan-27 00:33N 22°21' E 113°47'1110.7
2015-Jan-26 23:33N 22°29' E 113°55'0 0.0
2015-Jan-26 22:33N 22°29' E 113°55'0 0.0
2015-Jan-26 21:33N 22°29' E 113°55'0 0.0
2015-Jan-26 20:33N 22°29' E 113°55'0 0.0
2015-Jan-26 19:33N 22°29' E 113°55'0 0.0
2015-Jan-26 18:33N 22°29' E 113°55'0 0.0
2015-Jan-26 17:33N 22°29' E 113°55'0 0.0
2015-Jan-26 16:33N 22°29' E 113°55'0 0.0
2015-Jan-26 15:33N 22°29' E 113°55'0 0.0
2015-Jan-26 14:34N 22°29' E 113°55'0 0.0
2015-Jan-26 13:33N 22°29' E 113°55'0 0.0
2015-Jan-26 12:33N 22°29' E 113°55'0 0.2
2015-Jan-26 10:33N 22°28' E 113°55'0 0.2
2015-Jan-26 08:33N 22°29' E 113°55'1413.6
2015-Jan-26 07:32N 22°19' E 113°43'5 5.1
2015-Jan-26 06:33N 22°17' E 113°39'1919.1
2015-Jan-26 05:33N 22°29' E 113°55'2019.9
2015-Jan-26 04:33N 22°16' E 113°38'10 9.6
2015-Jan-26 03:33N 22°21' E 113°47'7 7.5
2015-Jan-26 02:34N 22°26' E 113°53'2019.0
2015-Jan-26 01:30N 22°14' E 113°35'1313.6
2015-Jan-26 00:33N 22°21' E 113°47'1010.3
2015-Jan-25 23:33N 22°29' E 113°55'0 0.0
2015-Jan-25 22:33N 22°29' E 113°55'0 0.0
2015-Jan-25 21:33N 22°29' E 113°55'0 0.0
2015-Jan-25 20:33N 22°29' E 113°55'0 0.0
2015-Jan-25 19:33N 22°29' E 113°55'0 0.0
2015-Jan-25 18:33N 22°29' E 113°55'0 0.0
2015-Jan-25 17:33N 22°29' E 113°55'0 0.0
2015-Jan-25 16:33N 22°29' E 113°55'0 0.0
2015-Jan-25 15:32N 22°29' E 113°55'0 0.0
2015-Jan-25 14:33N 22°29' E 113°55'0 0.0
2015-Jan-25 13:33N 22°29' E 113°55'0 0.0
2015-Jan-25 12:33N 22°29' E 113°55'4 3.2
2015-Jan-25 11:14N 22°25' E 113°54'0 0.1
2015-Jan-25 10:33N 22°25' E 113°54'4 2.1
2015-Jan-25 08:33N 22°29' E 113°55'0 0.0
2015-Jan-25 06:32N 22°29' E 113°55'1514.5
2015-Jan-25 05:30N 22°19' E 113°43'6 6.1
2015-Jan-25 04:33N 22°16' E 113°37'2120.8
2015-Jan-25 03:34N 22°29' E 113°55'1714.6
2015-Jan-25 02:25N 22°18' E 113°41'5 6.3
2015-Jan-25 01:33N 22°15' E 113°36'2222.0
2015-Jan-25 00:33N 22°29' E 113°55'0 0.1
2015-Jan-24 23:33N 22°29' E 113°55'0 0.0
2015-Jan-24 22:33N 22°29' E 113°55'0 0.0
2015-Jan-24 21:33N 22°29' E 113°55'0 0.0
2015-Jan-24 20:33N 22°29' E 113°55'0 0.0
2015-Jan-24 19:33N 22°29' E 113°55'0 0.0
2015-Jan-24 18:31N 22°29' E 113°55'0 0.0
2015-Jan-24 17:33N 22°29' E 113°55'0 0.0
2015-Jan-24 16:30N 22°29' E 113°55'0 0.0
2015-Jan-24 15:30N 22°29' E 113°55'0 0.0
2015-Jan-24 14:31N 22°29' E 113°55'5 4.8
2015-Jan-24 13:33N 22°24' E 113°54'0 0.4
2015-Jan-24 12:29N 22°24' E 113°54'5 2.6
2015-Jan-24 10:33N 22°29' E 113°55'1 0.6
2015-Jan-24 08:33N 22°28' E 113°55'1 1.1
2015-Jan-24 07:32N 22°29' E 113°55'3 3.4
2015-Jan-24 06:33N 22°26' E 113°53'2018.8
2015-Jan-24 05:29N 22°14' E 113°35'1313.7
2015-Jan-24 04:33N 22°21' E 113°47'8 7.5
2015-Jan-24 03:33N 22°26' E 113°53'2019.9
2015-Jan-24 02:32N 22°14' E 113°35'1313.7
2015-Jan-24 01:33N 22°22' E 113°47'10 9.4
2015-Jan-24 00:32N 22°29' E 113°55'0 0.0
2015-Jan-23 23:32N 22°29' E 113°55'0 0.0
2015-Jan-23 22:33N 22°29' E 113°55'0 0.0
2015-Jan-23 21:33N 22°29' E 113°55'0 0.0
2015-Jan-23 20:32N 22°29' E 113°55'0 0.0
2015-Jan-23 19:33N 22°29' E 113°55'0 0.0
2015-Jan-23 18:33N 22°29' E 113°55'0 0.0
2015-Jan-23 17:33N 22°29' E 113°55'0 0.0
2015-Jan-23 16:31N 22°29' E 113°55'0 0.0
2015-Jan-23 15:33N 22°29' E 113°55'0 0.0
2015-Jan-23 14:33N 22°29' E 113°55'5 5.2
2015-Jan-23 13:33N 22°24' E 113°54'1 0.8
2015-Jan-23 12:32N 22°24' E 113°54'4 2.3
2015-Jan-23 10:33N 22°29' E 113°55'0 0.2
2015-Jan-23 08:33N 22°28' E 113°55'0 0.3
2015-Jan-23 07:33N 22°29' E 113°55'4 3.9
2015-Jan-23 06:33N 22°25' E 113°53'1919.0
2015-Jan-23 05:33N 22°15' E 113°35'1313.6
2015-Jan-23 04:33N 22°22' E 113°47'7 7.3
2015-Jan-23 03:33N 22°26' E 113°54'2120.9
2015-Jan-23 02:33N 22°14' E 113°35'1313.2
2015-Jan-23 01:33N 22°22' E 113°47'10 9.8
2015-Jan-23 00:33N 22°29' E 113°55'0 0.1
2015-Jan-22 23:33N 22°29' E 113°55'0 0.0
2015-Jan-22 22:33N 22°29' E 113°55'0 0.0
2015-Jan-22 21:34N 22°29' E 113°55'0 0.0
2015-Jan-22 20:33N 22°29' E 113°55'0 0.0
2015-Jan-22 19:33N 22°29' E 113°55'0 0.0
2015-Jan-22 18:33N 22°29' E 113°55'0 0.0
2015-Jan-22 17:33N 22°29' E 113°55'0 0.0
2015-Jan-22 16:34N 22°29' E 113°55'0 0.0
2015-Jan-22 15:33N 22°29' E 113°55'0 0.1
2015-Jan-22 14:33N 22°29' E 113°55'0 0.1
2015-Jan-22 13:33N 22°29' E 113°55'1513.8
2015-Jan-22 12:29N 22°19' E 113°43'8 8.8
2015-Jan-22 11:33N 22°14' E 113°35'1918.4
2015-Jan-22 10:31N 22°25' E 113°52'1 0.6
2015-Jan-22 09:33N 22°26' E 113°53'2019.5
2015-Jan-22 08:33N 22°14' E 113°35'1313.3
2015-Jan-22 07:33N 22°21' E 113°47'7 7.2
2015-Jan-22 06:33N 22°26' E 113°53'2019.5
2015-Jan-22 05:31N 22°14' E 113°35'1313.7
2015-Jan-22 04:33N 22°21' E 113°47'7 7.4
2015-Jan-22 03:33N 22°26' E 113°54'2120.3
2015-Jan-22 02:33N 22°14' E 113°35'1313.3
2015-Jan-22 01:33N 22°21' E 113°47'10 9.9
2015-Jan-22 00:33N 22°29' E 113°55'0 0.0
2015-Jan-21 23:33N 22°29' E 113°55'0 0.0
2015-Jan-21 22:49N 22°29' E 113°55'0 0.0
2015-Jan-21 22:46N 22°29' E 113°55'0 0.0
2015-Jan-21 22:33N 22°29' E 113°55'0 0.0
2015-Jan-21 21:31N 22°29' E 113°55'0 0.0
2015-Jan-21 20:33N 22°29' E 113°55'0 0.0
2015-Jan-21 19:33N 22°29' E 113°55'0 0.0
2015-Jan-21 18:32N 22°29' E 113°55'0 0.0
2015-Jan-21 17:34N 22°29' E 113°55'0 0.0
2015-Jan-21 16:33N 22°29' E 113°55'0 0.0
2015-Jan-21 15:32N 22°29' E 113°55'0 0.0
2015-Jan-21 14:32N 22°29' E 113°55'0 0.0
2015-Jan-21 13:33N 22°29' E 113°55'0 0.0
2015-Jan-21 12:33N 22°29' E 113°55'0 0.2
2015-Jan-21 10:33N 22°28' E 113°55'0 0.2
2015-Jan-21 08:33N 22°29' E 113°55'1514.8
2015-Jan-21 07:33N 22°19' E 113°43'2 2.4
2015-Jan-21 06:33N 22°17' E 113°41'1717.2
2015-Jan-21 05:33N 22°29' E 113°55'2121.1
2015-Jan-21 04:33N 22°15' E 113°37'1211.6
2015-Jan-21 03:33N 22°22' E 113°47'7 7.2
2015-Jan-21 02:33N 22°26' E 113°54'2118.4
2015-Jan-21 01:26N 22°14' E 113°35'1314.9
2015-Jan-21 00:33N 22°22' E 113°47'10 9.8
2015-Jan-20 23:32N 22°29' E 113°55'0 0.0
2015-Jan-20 22:32N 22°29' E 113°55'0 0.0
2015-Jan-20 21:33N 22°29' E 113°55'0 0.0
2015-Jan-20 20:33N 22°29' E 113°55'0 0.0
2015-Jan-20 19:32N 22°29' E 113°55'0 0.0
2015-Jan-20 18:33N 22°29' E 113°55'0 0.0
2015-Jan-20 17:32N 22°29' E 113°55'0 0.0
2015-Jan-20 16:33N 22°29' E 113°55'0 0.0
2015-Jan-20 15:33N 22°29' E 113°55'0 0.0
2015-Jan-20 14:31N 22°29' E 113°55'4 2.2
2015-Jan-20 12:28N 22°24' E 113°54'2 2.5
2015-Jan-20 11:33N 22°27' E 113°54'2119.2
2015-Jan-20 10:27N 22°14' E 113°35'2 2.4
2015-Jan-20 09:31N 22°16' E 113°37'2121.4
2015-Jan-20 08:33N 22°29' E 113°55'6 5.8
2015-Jan-20 07:33N 22°24' E 113°51'1716.5
2015-Jan-20 06:30N 22°14' E 113°35'1313.3
2015-Jan-20 05:32N 22°21' E 113°47'9 8.9
2015-Jan-20 04:33N 22°27' E 113°54'2121.3
2015-Jan-20 03:33N 22°14' E 113°35'1413.4
2015-Jan-20 02:32N 22°22' E 113°48'7 7.5
2015-Jan-20 01:33N 22°27' E 113°54'2121.2
2015-Jan-20 00:33N 22°14' E 113°35'0 0.0
2015-Jan-19 23:33N 22°14' E 113°35'0 0.0
2015-Jan-19 22:29N 22°14' E 113°35'0 0.0
2015-Jan-19 21:33N 22°14' E 113°35'0 0.0
2015-Jan-19 20:32N 22°14' E 113°35'0 0.0
2015-Jan-19 19:33N 22°14' E 113°35'0 0.0
2015-Jan-19 18:30N 22°14' E 113°35'0 0.0
2015-Jan-19 17:32N 22°14' E 113°35'0 0.0
2015-Jan-19 16:33N 22°14' E 113°35'0 0.0
2015-Jan-19 15:33N 22°14' E 113°35'0 0.0
2015-Jan-19 14:33N 22°14' E 113°35'2 1.8
2015-Jan-19 13:33N 22°16' E 113°37'2120.9
2015-Jan-19 12:33N 22°29' E 113°55'0 0.0
2015-Jan-19 11:33N 22°29' E 113°55'1313.3
2015-Jan-19 10:32N 22°19' E 113°44'10 9.2
2015-Jan-19 09:30N 22°15' E 113°35'1313.6
2015-Jan-19 08:33N 22°21' E 113°47'1010.1
2015-Jan-19 07:33N 22°29' E 113°55'0 0.0
2015-Jan-19 06:33N 22°29' E 113°55'1 0.7
2015-Jan-19 04:33N 22°27' E 113°54'1 1.3
2015-Jan-19 03:33N 22°29' E 113°55'6 5.5
2015-Jan-19 02:25N 22°22' E 113°55'5 6.1
2015-Jan-19 01:33N 22°27' E 113°55'4 2.7
2015-Jan-19 00:07N 22°24' E 113°54'5 9.0
2015-Jan-18 23:33N 22°29' E 113°55'0 0.0
2015-Jan-18 22:31N 22°29' E 113°55'0 0.0
2015-Jan-18 21:32N 22°29' E 113°55'0 0.0
2015-Jan-18 20:33N 22°29' E 113°55'0 0.0
2015-Jan-18 19:32N 22°29' E 113°55'0 0.0
2015-Jan-18 18:32N 22°29' E 113°55'0 0.0
2015-Jan-18 17:30N 22°29' E 113°55'0 0.0
2015-Jan-18 16:33N 22°29' E 113°55'0 0.0
2015-Jan-18 15:32N 22°29' E 113°55'0 0.0
2015-Jan-18 14:33N 22°29' E 113°55'  

Dump ship's entire track history